createdAt,value
2023-03-13T00:01:48.484Z,8.69
2023-03-13T00:06:49.970Z,8.82
2023-03-13T00:11:51.344Z,8.91
2023-03-13T00:16:52.753Z,8.86
2023-03-13T00:21:54.126Z,8.85
2023-03-13T00:26:55.798Z,8.90
2023-03-13T00:31:57.161Z,8.93
2023-03-13T00:36:58.620Z,8.90
2023-03-13T00:41:59.938Z,8.85
2023-03-13T00:47:01.293Z,8.94
2023-03-13T00:52:02.630Z,8.91
2023-03-13T00:57:06.781Z,8.99
2023-03-13T01:02:08.236Z,9.00
2023-03-13T01:07:09.850Z,9.11
2023-03-13T01:12:11.185Z,9.31
2023-03-13T01:17:12.531Z,9.28
2023-03-13T01:22:13.901Z,9.23
2023-03-13T01:27:15.311Z,9.35
2023-03-13T01:32:16.759Z,9.35
2023-03-13T01:37:18.166Z,9.41
2023-03-13T01:42:19.520Z,9.30
2023-03-13T01:47:20.944Z,9.40
2023-03-13T01:52:25.403Z,9.48
2023-03-13T01:57:30.907Z,9.40
2023-03-13T02:02:32.297Z,9.53
2023-03-13T02:07:38.610Z,9.54
2023-03-13T02:12:40.719Z,9.55
2023-03-13T02:17:42.538Z,9.50
2023-03-13T02:22:53.925Z,9.55
2023-03-13T02:27:58.886Z,9.57
2023-03-13T02:33:01.386Z,9.44
2023-03-13T02:38:05.090Z,9.59
2023-03-13T02:43:12.249Z,9.58
2023-03-13T02:48:14.952Z,9.56
2023-03-13T02:53:16.319Z,9.55
2023-03-13T02:58:17.648Z,9.59
2023-03-13T03:03:19.010Z,9.56
2023-03-13T03:08:20.399Z,9.72
2023-03-13T03:13:21.853Z,9.65
2023-03-13T03:18:23.200Z,9.68
2023-03-13T03:23:24.556Z,9.65
2023-03-13T03:28:25.933Z,9.75
2023-03-13T03:33:27.295Z,9.78
2023-03-13T03:38:28.884Z,9.78
2023-03-13T03:43:30.238Z,9.77
2023-03-13T03:48:31.980Z,9.78
2023-03-13T03:53:33.386Z,9.71
2023-03-13T03:58:34.767Z,9.77
2023-03-13T04:03:36.164Z,9.86
2023-03-13T04:08:37.723Z,9.73
2023-03-13T04:13:39.204Z,9.71
2023-03-13T04:18:40.591Z,9.76
2023-03-13T04:23:41.932Z,9.80
2023-03-13T04:28:43.244Z,9.76
2023-03-13T04:33:44.565Z,9.87
2023-03-13T04:38:45.934Z,9.72
2023-03-13T04:43:47.296Z,9.72
2023-03-13T04:48:48.603Z,9.93
2023-03-13T04:53:50.162Z,10.18
2023-03-13T04:58:51.876Z,9.96
2023-03-13T05:03:53.260Z,10.07
2023-03-13T05:08:54.608Z,10.44
2023-03-13T05:13:55.963Z,10.31
2023-03-13T05:18:57.405Z,10.21
2023-03-13T05:23:58.756Z,10.26
2023-03-13T05:29:00.117Z,10.15
2023-03-13T05:34:01.512Z,9.98
2023-03-13T05:39:02.993Z,10.30
2023-03-13T05:44:04.453Z,10.38
2023-03-13T05:49:05.904Z,10.24
2023-03-13T05:54:07.266Z,10.37
2023-03-13T05:59:08.658Z,10.58
2023-03-13T06:04:10.125Z,10.56
2023-03-13T06:09:11.576Z,10.53
2023-03-13T06:14:12.923Z,10.81
2023-03-13T06:19:14.271Z,10.72
2023-03-13T06:24:15.807Z,10.55
2023-03-13T06:29:17.751Z,10.51
2023-03-13T06:34:19.327Z,10.64
2023-03-13T06:39:20.731Z,11.02
2023-03-13T06:44:22.137Z,10.99
2023-03-13T06:49:23.460Z,10.96
2023-03-13T06:54:25.055Z,10.92
2023-03-13T06:59:26.416Z,11.14
2023-03-13T07:04:27.771Z,11.07
2023-03-13T07:09:29.391Z,10.89
2023-03-13T07:14:30.750Z,10.99
2023-03-13T07:19:32.227Z,10.97
2023-03-13T07:24:33.619Z,11.20
2023-03-13T07:29:35.089Z,11.17
2023-03-13T07:34:36.474Z,11.24
2023-03-13T07:39:37.862Z,10.97
2023-03-13T07:44:39.235Z,11.02
2023-03-13T07:49:40.614Z,11.07
2023-03-13T07:54:41.971Z,10.87
2023-03-13T07:59:43.296Z,10.82
2023-03-13T08:04:44.677Z,10.79
2023-03-13T08:09:45.989Z,10.89
2023-03-13T08:14:47.317Z,10.67
2023-03-13T08:19:48.658Z,10.69
2023-03-13T08:24:50.054Z,10.68
2023-03-13T08:29:51.465Z,10.76
2023-03-13T08:34:52.843Z,10.64
2023-03-13T08:39:54.412Z,10.76
2023-03-13T08:44:55.780Z,10.79
2023-03-13T08:49:57.143Z,11.04
2023-03-13T08:54:58.503Z,10.97
2023-03-13T09:00:02.672Z,11.32
2023-03-13T09:05:04.198Z,11.75
2023-03-13T09:10:05.834Z,11.43
2023-03-13T09:15:07.586Z,11.77
2023-03-13T09:20:09.323Z,11.67
2023-03-13T09:25:10.937Z,11.60
2023-03-13T09:30:12.360Z,11.27
2023-03-13T09:35:13.736Z,11.40
2023-03-13T09:40:17.126Z,11.39
2023-03-13T09:45:32.404Z,11.50
2023-03-13T09:50:35.284Z,11.88
2023-03-13T09:55:38.178Z,12.00
2023-03-13T10:00:40.403Z,11.83
2023-03-13T10:05:49.556Z,11.78
2023-03-13T10:10:57.472Z,11.83
2023-03-13T10:16:04.523Z,11.78
2023-03-13T10:21:19.829Z,12.38
2023-03-13T10:26:24.623Z,11.93
2023-03-13T10:31:25.949Z,11.54
2023-03-13T10:36:39.370Z,11.75
2023-03-13T10:41:40.720Z,11.81
2023-03-13T10:46:44.545Z,12.17
2023-03-13T10:51:48.787Z,12.29
2023-03-13T10:56:51.043Z,11.91
2023-03-13T11:01:53.293Z,11.98
2023-03-13T11:06:58.749Z,11.68
2023-03-13T11:12:20.073Z,11.82
2023-03-13T11:17:27.175Z,11.75
2023-03-13T11:22:48.927Z,12.21
2023-03-13T11:27:53.014Z,12.05
2023-03-13T11:33:20.624Z,12.56
2023-03-13T11:38:32.198Z,12.37
2023-03-13T11:43:42.020Z,12.48
2023-03-13T11:49:02.435Z,12.01
2023-03-13T11:54:22.691Z,12.18
2023-03-13T11:59:46.359Z,12.63
2023-03-13T12:04:53.062Z,12.43
2023-03-13T12:09:58.694Z,12.67
2023-03-13T12:15:06.018Z,12.77
2023-03-13T12:20:19.669Z,12.67
2023-03-13T12:25:24.037Z,12.95
2023-03-13T12:30:54.971Z,13.06
2023-03-13T12:36:05.724Z,13.07
2023-03-13T12:41:17.885Z,13.31
2023-03-13T12:46:19.358Z,13.59
2023-03-13T12:51:47.127Z,13.68
2023-03-13T12:57:03.793Z,13.81
2023-03-13T13:02:14.839Z,13.44
2023-03-13T13:07:19.417Z,13.47
2023-03-13T13:12:22.290Z,13.00
2023-03-13T13:17:30.280Z,13.45
2023-03-13T13:22:34.742Z,13.34
2023-03-13T13:27:36.161Z,13.50
2023-03-13T13:32:39.347Z,13.71
2023-03-13T13:37:40.801Z,13.82
2023-03-13T13:42:54.212Z,13.41
2023-03-13T13:48:33.940Z,13.68
2023-03-13T13:53:51.770Z,13.34
2023-03-13T13:58:57.224Z,13.17
2023-03-13T14:04:11.471Z,12.94
2023-03-13T14:09:31.539Z,13.19
2023-03-13T14:14:32.925Z,13.00
2023-03-13T14:19:38.786Z,12.77
2023-03-13T14:24:40.387Z,12.58
2023-03-13T14:29:41.805Z,12.87
2023-03-13T14:34:43.226Z,12.93
2023-03-13T14:39:45.503Z,12.87
2023-03-13T14:44:47.637Z,13.13
2023-03-13T14:49:55.343Z,13.15
2023-03-13T14:55:06.058Z,13.21
2023-03-13T15:00:26.494Z,13.01
2023-03-13T15:05:32.270Z,12.87
2023-03-13T15:10:35.315Z,12.81
2023-03-13T15:15:36.731Z,12.90
2023-03-13T15:20:38.075Z,12.83
2023-03-13T15:25:39.496Z,12.32
2023-03-13T15:30:40.989Z,12.32
2023-03-13T15:35:43.513Z,12.82
2023-03-13T15:40:45.414Z,13.29
2023-03-13T15:45:47.431Z,13.14
2023-03-13T15:50:53.257Z,13.13
2023-03-13T15:55:55.477Z,13.38
2023-03-13T16:00:57.577Z,13.13
2023-03-13T16:05:58.966Z,13.03
2023-03-13T16:11:00.314Z,12.92
2023-03-13T16:16:01.665Z,12.93
2023-03-13T16:21:03.097Z,13.04
2023-03-13T16:26:05.729Z,13.05
2023-03-13T16:31:08.971Z,12.98
2023-03-13T16:36:14.369Z,12.77
2023-03-13T16:41:25.532Z,12.56
2023-03-13T16:46:32.933Z,12.56
2023-03-13T16:51:34.336Z,12.81
2023-03-13T16:56:37.129Z,12.68
2023-03-13T17:01:38.521Z,12.37
2023-03-13T17:06:41.280Z,12.33
2023-03-13T17:11:43.630Z,12.12
2023-03-13T17:16:45.727Z,12.26
2023-03-13T17:21:47.123Z,12.12
2023-03-13T17:26:48.521Z,12.49
2023-03-13T17:31:50.076Z,12.08
2023-03-13T17:36:51.419Z,12.30
2023-03-13T17:41:52.857Z,12.07
2023-03-13T17:46:54.323Z,12.37
2023-03-13T17:51:55.763Z,12.26
2023-03-13T17:56:57.159Z,11.93
2023-03-13T18:01:58.605Z,11.95
2023-03-13T18:07:00.560Z,11.91
2023-03-13T18:12:01.932Z,11.73
2023-03-13T18:17:03.323Z,12.16
2023-03-13T18:22:06.479Z,11.95
2023-03-13T18:27:11.889Z,12.25
2023-03-13T18:32:14.118Z,12.35
2023-03-13T18:37:21.596Z,12.05
2023-03-13T18:42:22.981Z,11.76
2023-03-13T18:47:24.595Z,11.73
2023-03-13T18:52:25.960Z,12.03
2023-03-13T18:57:27.337Z,12.28
2023-03-13T19:02:28.740Z,12.08
2023-03-13T19:07:30.228Z,11.63
2023-03-13T19:12:31.660Z,11.89
2023-03-13T19:17:33.151Z,11.62
2023-03-13T19:22:34.551Z,11.67
2023-03-13T19:27:35.924Z,11.67
2023-03-13T19:32:37.284Z,11.53
2023-03-13T19:37:41.656Z,11.44
2023-03-13T19:42:42.988Z,11.28
2023-03-13T19:47:44.705Z,11.25
2023-03-13T19:52:46.185Z,11.23
2023-03-13T19:57:47.729Z,11.39
2023-03-13T20:02:49.455Z,11.24
2023-03-13T20:07:50.849Z,11.07
2023-03-13T20:12:52.333Z,10.96
2023-03-13T20:17:53.748Z,10.81
2023-03-13T20:22:55.088Z,10.72
2023-03-13T20:27:56.488Z,10.63
2023-03-13T20:32:59.970Z,10.50
2023-03-13T20:38:01.527Z,10.47
2023-03-13T20:43:03.318Z,10.29
2023-03-13T20:48:04.792Z,10.18
2023-03-13T20:53:06.277Z,10.09
2023-03-13T20:58:07.661Z,10.03
2023-03-13T21:03:09.054Z,10.07
2023-03-13T21:08:10.802Z,9.85
2023-03-13T21:13:12.337Z,10.02
2023-03-13T21:18:13.758Z,10.11
2023-03-13T21:23:15.173Z,10.11
2023-03-13T21:28:16.504Z,10.06
2023-03-13T21:33:17.922Z,10.11
2023-03-13T21:38:19.397Z,9.91
2023-03-13T21:43:23.760Z,10.03
2023-03-13T21:48:25.327Z,9.91
2023-03-13T21:53:26.682Z,9.77
2023-03-13T21:58:28.073Z,9.79
2023-03-13T22:03:29.578Z,9.81
2023-03-13T22:08:30.923Z,9.96
2023-03-13T22:13:32.321Z,10.00
2023-03-13T22:18:33.686Z,10.18
2023-03-13T22:23:35.182Z,10.24
2023-03-13T22:28:36.650Z,10.16
2023-03-13T22:33:38.024Z,10.26
2023-03-13T22:38:39.462Z,10.28
2023-03-13T22:43:40.832Z,10.34
2023-03-13T22:48:42.201Z,10.29
2023-03-13T22:53:43.711Z,10.23
2023-03-13T22:58:45.278Z,10.19
2023-03-13T23:03:46.616Z,10.30
2023-03-13T23:08:47.969Z,10.21
2023-03-13T23:13:49.471Z,10.22
2023-03-13T23:18:51.013Z,10.31
2023-03-13T23:23:53.618Z,10.30
2023-03-13T23:28:54.959Z,10.42
2023-03-13T23:33:56.313Z,10.31
2023-03-13T23:38:57.667Z,10.19
2023-03-13T23:43:58.970Z,10.36
2023-03-13T23:49:00.366Z,10.35
2023-03-13T23:54:01.712Z,10.38
2023-03-13T23:59:03.062Z,10.40
